sensor_id;sensor_type;location;lat;lon;timestamp;pressure;altitude;pressure_sealevel;temperature;humidity
61296;BME280;47168;48.104;20.730;2022-07-12T00:01:05;100282.50;;;8.15;100.00
61296;BME280;47168;48.104;20.730;2022-07-12T00:03:31;100280.38;;;8.22;100.00
61296;BME280;47168;48.104;20.730;2022-07-12T00:05:56;100274.81;;;8.12;100.00
61296;BME280;47168;48.104;20.730;2022-07-12T00:08:22;100274.53;;;8.01;100.00
61296;BME280;47168;48.104;20.730;2022-07-12T00:10:47;100269.50;;;7.96;100.00
61296;BME280;47168;48.104;20.730;2022-07-12T00:13:13;100270.88;;;8.03;100.00
61296;BME280;47168;48.104;20.730;2022-07-12T00:15:38;100272.06;;;7.97;100.00
61296;BME280;47168;48.104;20.730;2022-07-12T00:18:04;100266.56;;;8.02;100.00
61296;BME280;47168;48.104;20.730;2022-07-12T00:20:29;100274.16;;;7.91;100.00
61296;BME280;47168;48.104;20.730;2022-07-12T00:22:55;100274.69;;;7.97;100.00
61296;BME280;47168;48.104;20.730;2022-07-12T00:25:21;100273.50;;;8.03;100.00
61296;BME280;47168;48.104;20.730;2022-07-12T00:27:46;100269.63;;;8.10;100.00
61296;BME280;47168;48.104;20.730;2022-07-12T00:30:12;100268.53;;;8.14;100.00
61296;BME280;47168;48.104;20.730;2022-07-12T00:32:37;100276.06;;;8.05;100.00
61296;BME280;47168;48.104;20.730;2022-07-12T00:35:05;100269.88;;;8.06;100.00
61296;BME280;47168;48.104;20.730;2022-07-12T00:37:31;100277.91;;;8.03;100.00
61296;BME280;47168;48.104;20.730;2022-07-12T00:39:57;100271.22;;;8.13;100.00
61296;BME280;47168;48.104;20.730;2022-07-12T00:42:23;100257.22;;;7.96;100.00
61296;BME280;47168;48.104;20.730;2022-07-12T00:44:48;100262.22;;;8.01;100.00
61296;BME280;47168;48.104;20.730;2022-07-12T00:47:28;100281.44;;;7.86;100.00
61296;BME280;47168;48.104;20.730;2022-07-12T00:49:57;100275.97;;;7.90;100.00
61296;BME280;47168;48.104;20.730;2022-07-12T00:52:23;100282.38;;;7.85;100.00
61296;BME280;47168;48.104;20.730;2022-07-12T00:54:49;100273.22;;;7.76;100.00
61296;BME280;47168;48.104;20.730;2022-07-12T00:57:15;100274.47;;;7.69;100.00
61296;BME280;47168;48.104;20.730;2022-07-12T00:59:40;100276.94;;;7.72;100.00
61296;BME280;47168;48.104;20.730;2022-07-12T01:02:06;100286.72;;;7.68;100.00
61296;BME280;47168;48.104;20.730;2022-07-12T01:04:33;100285.81;;;7.69;100.00
61296;BME280;47168;48.104;20.730;2022-07-12T01:06:58;100275.69;;;7.61;100.00
61296;BME280;47168;48.104;20.730;2022-07-12T01:09:24;100274.16;;;7.57;100.00
61296;BME280;47168;48.104;20.730;2022-07-12T01:11:49;100273.34;;;7.57;100.00
61296;BME280;47168;48.104;20.730;2022-07-12T01:14:15;100275.97;;;7.57;100.00
61296;BME280;47168;48.104;20.730;2022-07-12T01:16:41;100275.97;;;7.57;100.00
61296;BME280;47168;48.104;20.730;2022-07-12T01:19:07;100280.59;;;7.52;100.00
61296;BME280;47168;48.104;20.730;2022-07-12T01:21:37;100277.25;;;7.48;100.00
61296;BME280;47168;48.104;20.730;2022-07-12T01:24:05;100277.44;;;7.45;100.00
61296;BME280;47168;48.104;20.730;2022-07-12T01:26:31;100280.22;;;7.42;100.00
61296;BME280;47168;48.104;20.730;2022-07-12T01:28:57;100275.75;;;7.44;100.00
61296;BME280;47168;48.104;20.730;2022-07-12T01:31:23;100276.66;;;7.43;100.00
61296;BME280;47168;48.104;20.730;2022-07-12T01:33:49;100278.06;;;7.33;100.00
61296;BME280;47168;48.104;20.730;2022-07-12T01:36:16;100278.75;;;7.36;100.00
61296;BME280;47168;48.104;20.730;2022-07-12T01:38:42;100285.03;;;7.34;100.00
61296;BME280;47168;48.104;20.730;2022-07-12T01:41:07;100276.53;;;7.29;100.00
61296;BME280;47168;48.104;20.730;2022-07-12T01:43:33;100280.28;;;7.23;100.00
61296;BME280;47168;48.104;20.730;2022-07-12T01:45:58;100272.41;;;7.23;100.00
61296;BME280;47168;48.104;20.730;2022-07-12T01:48:24;100268.34;;;7.17;100.00
61296;BME280;47168;48.104;20.730;2022-07-12T01:50:49;100255.50;;;7.11;100.00
61296;BME280;47168;48.104;20.730;2022-07-12T01:53:16;100259.69;;;7.15;100.00
61296;BME280;47168;48.104;20.730;2022-07-12T01:55:41;100249.97;;;7.17;100.00
61296;BME280;47168;48.104;20.730;2022-07-12T01:58:07;100247.50;;;7.14;100.00
61296;BME280;47168;48.104;20.730;2022-07-12T02:00:32;100243.34;;;7.10;100.00
61296;BME280;47168;48.104;20.730;2022-07-12T02:02:58;100246.03;;;7.09;100.00
61296;BME280;47168;48.104;20.730;2022-07-12T02:05:24;100256.59;;;7.07;100.00
61296;BME280;47168;48.104;20.730;2022-07-12T02:07:49;100254.91;;;7.06;100.00
61296;BME280;47168;48.104;20.730;2022-07-12T02:10:16;100254.81;;;7.08;100.00
61296;BME280;47168;48.104;20.730;2022-07-12T02:12:41;100262.47;;;7.12;100.00
61296;BME280;47168;48.104;20.730;2022-07-12T02:15:07;100265.94;;;7.13;100.00
61296;BME280;47168;48.104;20.730;2022-07-12T02:17:33;100273.81;;;7.13;100.00
61296;BME280;47168;48.104;20.730;2022-07-12T02:19:59;100270.88;;;7.01;100.00
61296;BME280;47168;48.104;20.730;2022-07-12T02:22:24;100263.69;;;6.88;100.00
61296;BME280;47168;48.104;20.730;2022-07-12T02:24:49;100269.25;;;6.99;100.00
61296;BME280;47168;48.104;20.730;2022-07-12T02:27:16;100253.19;;;6.88;100.00
61296;BME280;47168;48.104;20.730;2022-07-12T02:29:42;100267.31;;;7.02;100.00
61296;BME280;47168;48.104;20.730;2022-07-12T02:32:07;100287.09;;;6.92;100.00
61296;BME280;47168;48.104;20.730;2022-07-12T02:34:32;100280.88;;;6.93;100.00
61296;BME280;47168;48.104;20.730;2022-07-12T02:36:58;100272.66;;;6.83;100.00
61296;BME280;47168;48.104;20.730;2022-07-12T02:39:24;100283.28;;;6.80;100.00
61296;BME280;47168;48.104;20.730;2022-07-12T02:41:50;100267.69;;;6.77;100.00
61296;BME280;47168;48.104;20.730;2022-07-12T02:44:16;100269.75;;;6.71;100.00
61296;BME280;47168;48.104;20.730;2022-07-12T02:46:41;100267.69;;;6.77;100.00
61296;BME280;47168;48.104;20.730;2022-07-12T02:49:06;100283.44;;;6.77;100.00
61296;BME280;47168;48.104;20.730;2022-07-12T02:51:32;100286.81;;;6.79;100.00
61296;BME280;47168;48.104;20.730;2022-07-12T02:53:57;100289.66;;;6.75;100.00
61296;BME280;47168;48.104;20.730;2022-07-12T02:56:24;100290.38;;;6.78;100.00
61296;BME280;47168;48.104;20.730;2022-07-12T02:58:50;100284.34;;;6.76;100.00
61296;BME280;47168;48.104;20.730;2022-07-12T03:01:15;100285.97;;;6.79;100.00
61296;BME280;47168;48.104;20.730;2022-07-12T03:03:41;100282.09;;;6.68;100.00
61296;BME280;47168;48.104;20.730;2022-07-12T03:06:07;100281.16;;;6.70;100.00
61296;BME280;47168;48.104;20.730;2022-07-12T03:08:32;100284.28;;;6.78;100.00
61296;BME280;47168;48.104;20.730;2022-07-12T03:10:57;100289.16;;;6.85;100.00
61296;BME280;47168;48.104;20.730;2022-07-12T03:13:23;100284.97;;;6.81;100.00
61296;BME280;47168;48.104;20.730;2022-07-12T03:15:48;100286.28;;;6.73;100.00
61296;BME280;47168;48.104;20.730;2022-07-12T03:18:15;100293.22;;;6.74;100.00
61296;BME280;47168;48.104;20.730;2022-07-12T03:20:41;100295.63;;;6.78;100.00
61296;BME280;47168;48.104;20.730;2022-07-12T03:23:06;100291.94;;;6.82;100.00
61296;BME280;47168;48.104;20.730;2022-07-12T03:25:31;100297.94;;;6.84;100.00
61296;BME280;47168;48.104;20.730;2022-07-12T03:27:57;100297.88;;;6.86;100.00
61296;BME280;47168;48.104;20.730;2022-07-12T03:30:22;100297.88;;;6.86;100.00
61296;BME280;47168;48.104;20.730;2022-07-12T03:32:48;100296.25;;;6.83;100.00
61296;BME280;47168;48.104;20.730;2022-07-12T03:35:14;100291.84;;;6.84;100.00
61296;BME280;47168;48.104;20.730;2022-07-12T03:37:50;100291.84;;;6.84;100.00
61296;BME280;47168;48.104;20.730;2022-07-12T03:40:17;100288.31;;;6.85;100.00
61296;BME280;47168;48.104;20.730;2022-07-12T03:42:44;100292.63;;;6.86;100.00
61296;BME280;47168;48.104;20.730;2022-07-12T03:45:10;100284.69;;;6.88;100.00
61296;BME280;47168;48.104;20.730;2022-07-12T03:47:36;100286.47;;;6.87;100.00
61296;BME280;47168;48.104;20.730;2022-07-12T03:50:07;100300.91;;;6.96;100.00
61296;BME280;47168;48.104;20.730;2022-07-12T03:52:33;100290.88;;;7.04;100.00
61296;BME280;47168;48.104;20.730;2022-07-12T03:54:59;100295.66;;;7.13;100.00
61296;BME280;47168;48.104;20.730;2022-07-12T03:57:25;100299.47;;;7.25;100.00
61296;BME280;47168;48.104;20.730;2022-07-12T03:59:51;100293.19;;;7.28;100.00
61296;BME280;47168;48.104;20.730;2022-07-12T04:02:17;100298.97;;;7.34;100.00
61296;BME280;47168;48.104;20.730;2022-07-12T04:04:42;100297.59;;;7.45;100.00
61296;BME280;47168;48.104;20.730;2022-07-12T04:07:08;100291.00;;;7.53;100.00
61296;BME280;47168;48.104;20.730;2022-07-12T04:09:33;100294.97;;;7.78;100.00
61296;BME280;47168;48.104;20.730;2022-07-12T04:11:59;100287.94;;;9.52;100.00
61296;BME280;47168;48.104;20.730;2022-07-12T04:14:24;100295.41;;;8.83;100.00
61296;BME280;47168;48.104;20.730;2022-07-12T04:16:50;100288.81;;;9.22;100.00
61296;BME280;47168;48.104;20.730;2022-07-12T04:19:15;100275.56;;;8.78;100.00
61296;BME280;47168;48.104;20.730;2022-07-12T04:21:40;100283.00;;;9.01;100.00
61296;BME280;47168;48.104;20.730;2022-07-12T04:24:06;100269.94;;;10.02;97.92
61296;BME280;47168;48.104;20.730;2022-07-12T04:26:32;100278.88;;;9.56;100.00
61296;BME280;47168;48.104;20.730;2022-07-12T04:28:57;100282.50;;;9.25;100.00
61296;BME280;47168;48.104;20.730;2022-07-12T04:31:23;100289.09;;;9.02;100.00
61296;BME280;47168;48.104;20.730;2022-07-12T04:33:49;100300.34;;;9.20;100.00
61296;BME280;47168;48.104;20.730;2022-07-12T04:36:15;100300.19;;;9.68;100.00
61296;BME280;47168;48.104;20.730;2022-07-12T04:38:40;100295.16;;;12.08;96.59
61296;BME280;47168;48.104;20.730;2022-07-12T04:41:06;100298.09;;;10.99;92.55
61296;BME280;47168;48.104;20.730;2022-07-12T04:43:31;100295.13;;;10.91;97.38
61296;BME280;47168;48.104;20.730;2022-07-12T04:46:08;100293.88;;;10.69;98.99
61296;BME280;47168;48.104;20.730;2022-07-12T04:48:33;100287.66;;;11.10;98.27
61296;BME280;47168;48.104;20.730;2022-07-12T04:50:59;100300.84;;;11.50;97.41
61296;BME280;47168;48.104;20.730;2022-07-12T04:53:24;100273.41;;;13.01;87.44
61296;BME280;47168;48.104;20.730;2022-07-12T04:55:50;100275.63;;;14.33;83.07
61296;BME280;47168;48.104;20.730;2022-07-12T04:58:15;100280.53;;;16.19;74.66
61296;BME280;47168;48.104;20.730;2022-07-12T05:00:40;100271.69;;;16.98;69.93
61296;BME280;47168;48.104;20.730;2022-07-12T05:03:06;100276.00;;;17.48;69.71
61296;BME280;47168;48.104;20.730;2022-07-12T05:05:31;100277.34;;;17.72;69.29
61296;BME280;47168;48.104;20.730;2022-07-12T05:07:57;100277.31;;;17.82;65.88
61296;BME280;47168;48.104;20.730;2022-07-12T05:10:22;100269.63;;;18.16;62.53
61296;BME280;47168;48.104;20.730;2022-07-12T05:12:47;100280.50;;;18.50;61.12
61296;BME280;47168;48.104;20.730;2022-07-12T05:15:13;100271.13;;;18.19;62.30
61296;BME280;47168;48.104;20.730;2022-07-12T05:17:38;100272.91;;;18.00;61.64
61296;BME280;47168;48.104;20.730;2022-07-12T05:20:04;100278.03;;;16.97;66.24
61296;BME280;47168;48.104;20.730;2022-07-12T05:22:29;100275.50;;;16.26;69.31
61296;BME280;47168;48.104;20.730;2022-07-12T05:24:55;100279.97;;;15.64;71.82
61296;BME280;47168;48.104;20.730;2022-07-12T05:27:20;100282.63;;;15.85;78.14
61296;BME280;47168;48.104;20.730;2022-07-12T05:29:45;100281.06;;;16.13;74.41
61296;BME280;47168;48.104;20.730;2022-07-12T05:32:11;100271.63;;;15.99;75.75
61296;BME280;47168;48.104;20.730;2022-07-12T05:34:37;100276.50;;;15.94;80.32
61296;BME280;47168;48.104;20.730;2022-07-12T05:37:03;100277.13;;;15.77;79.59
61296;BME280;47168;48.104;20.730;2022-07-12T05:39:29;100273.91;;;15.62;80.46
61296;BME280;47168;48.104;20.730;2022-07-12T05:41:55;100263.56;;;15.59;80.29
61296;BME280;47168;48.104;20.730;2022-07-12T05:44:20;100277.50;;;15.30;78.87
61296;BME280;47168;48.104;20.730;2022-07-12T05:46:46;100275.53;;;14.90;80.97
61296;BME280;47168;48.104;20.730;2022-07-12T05:49:11;100274.78;;;14.55;84.30
61296;BME280;47168;48.104;20.730;2022-07-12T05:51:37;100277.19;;;14.58;85.98
61296;BME280;47168;48.104;20.730;2022-07-12T05:54:21;100270.41;;;14.54;88.19
61296;BME280;47168;48.104;20.730;2022-07-12T05:56:46;100268.13;;;14.50;88.95
61296;BME280;47168;48.104;20.730;2022-07-12T05:59:12;100271.63;;;14.61;89.23
61296;BME280;47168;48.104;20.730;2022-07-12T06:01:37;100271.56;;;14.84;91.51
61296;BME280;47168;48.104;20.730;2022-07-12T06:04:03;100276.31;;;15.01;90.28
61296;BME280;47168;48.104;20.730;2022-07-12T06:06:28;100275.56;;;15.11;90.36
61296;BME280;47168;48.104;20.730;2022-07-12T06:08:53;100275.09;;;15.27;92.38
61296;BME280;47168;48.104;20.730;2022-07-12T06:11:19;100270.19;;;15.43;92.76
61296;BME280;47168;48.104;20.730;2022-07-12T06:13:44;100270.03;;;15.66;91.87
61296;BME280;47168;48.104;20.730;2022-07-12T06:16:10;100265.00;;;15.93;89.51
61296;BME280;47168;48.104;20.730;2022-07-12T06:18:37;100271.00;;;15.86;85.68
61296;BME280;47168;48.104;20.730;2022-07-12T06:21:02;100264.91;;;16.05;82.81
61296;BME280;47168;48.104;20.730;2022-07-12T06:23:29;100265.59;;;16.07;86.35
61296;BME280;47168;48.104;20.730;2022-07-12T06:25:54;100263.56;;;16.20;82.69
61296;BME280;47168;48.104;20.730;2022-07-12T06:28:19;100256.28;;;16.32;84.52
61296;BME280;47168;48.104;20.730;2022-07-12T06:30:45;100257.88;;;16.44;81.46
61296;BME280;47168;48.104;20.730;2022-07-12T06:33:10;100257.75;;;16.46;82.06
61296;BME280;47168;48.104;20.730;2022-07-12T06:35:36;100262.22;;;16.55;80.98
61296;BME280;47168;48.104;20.730;2022-07-12T06:38:02;100262.78;;;16.59;80.05
61296;BME280;47168;48.104;20.730;2022-07-12T06:40:27;100257.63;;;16.67;80.66
61296;BME280;47168;48.104;20.730;2022-07-12T06:42:53;100262.81;;;16.78;80.38
61296;BME280;47168;48.104;20.730;2022-07-12T06:45:18;100266.34;;;16.89;80.65
61296;BME280;47168;48.104;20.730;2022-07-12T06:47:44;100264.13;;;16.94;79.83
61296;BME280;47168;48.104;20.730;2022-07-12T06:50:09;100258.22;;;17.00;78.29
61296;BME280;47168;48.104;20.730;2022-07-12T06:52:35;100260.34;;;16.96;78.05
61296;BME280;47168;48.104;20.730;2022-07-12T06:55:00;100272.66;;;17.07;75.84
61296;BME280;47168;48.104;20.730;2022-07-12T06:57:26;100266.78;;;17.03;65.44
61296;BME280;47168;48.104;20.730;2022-07-12T06:59:52;100258.91;;;17.02;73.43
61296;BME280;47168;48.104;20.730;2022-07-12T07:02:18;100260.75;;;17.01;67.81
61296;BME280;47168;48.104;20.730;2022-07-12T07:04:43;100257.94;;;17.13;61.27
61296;BME280;47168;48.104;20.730;2022-07-12T07:07:09;100255.00;;;17.16;60.65
61296;BME280;47168;48.104;20.730;2022-07-12T07:09:34;100260.28;;;17.26;66.79
61296;BME280;47168;48.104;20.730;2022-07-12T07:12:00;100252.56;;;17.32;62.96
61296;BME280;47168;48.104;20.730;2022-07-12T07:14:26;100255.78;;;17.46;67.36
61296;BME280;47168;48.104;20.730;2022-07-12T07:16:55;100263.59;;;17.67;65.71
61296;BME280;47168;48.104;20.730;2022-07-12T07:19:21;100253.47;;;17.70;71.03
61296;BME280;47168;48.104;20.730;2022-07-12T07:21:50;100256.94;;;17.90;64.54
61296;BME280;47168;48.104;20.730;2022-07-12T07:24:15;100251.72;;;17.79;58.89
61296;BME280;47168;48.104;20.730;2022-07-12T07:26:41;100257.13;;;17.69;59.74
61296;BME280;47168;48.104;20.730;2022-07-12T07:29:06;100253.00;;;17.85;64.31
61296;BME280;47168;48.104;20.730;2022-07-12T07:31:50;100247.78;;;17.93;57.32
61296;BME280;47168;48.104;20.730;2022-07-12T07:34:15;100250.63;;;17.91;58.64
61296;BME280;47168;48.104;20.730;2022-07-12T07:36:41;100246.91;;;18.02;58.61
61296;BME280;47168;48.104;20.730;2022-07-12T07:39:06;100244.44;;;18.19;58.54
61296;BME280;47168;48.104;20.730;2022-07-12T07:41:32;100237.81;;;18.23;54.05
61296;BME280;47168;48.104;20.730;2022-07-12T07:43:57;100243.16;;;18.41;60.01
61296;BME280;47168;48.104;20.730;2022-07-12T07:46:22;100246.47;;;18.70;64.53
61296;BME280;47168;48.104;20.730;2022-07-12T07:48:48;100253.56;;;18.90;61.33
61296;BME280;47168;48.104;20.730;2022-07-12T07:51:13;100248.34;;;18.88;56.43
61296;BME280;47168;48.104;20.730;2022-07-12T07:53:40;100253.44;;;18.99;61.15
61296;BME280;47168;48.104;20.730;2022-07-12T07:56:06;100251.69;;;19.08;58.13
61296;BME280;47168;48.104;20.730;2022-07-12T07:58:31;100256.63;;;19.21;50.73
61296;BME280;47168;48.104;20.730;2022-07-12T08:00:57;100254.44;;;19.16;57.98
61296;BME280;47168;48.104;20.730;2022-07-12T08:03:22;100256.22;;;19.86;59.88
61296;BME280;47168;48.104;20.730;2022-07-12T08:05:48;100248.53;;;19.83;52.88
61296;BME280;47168;48.104;20.730;2022-07-12T08:08:13;100257.19;;;19.77;58.67
61296;BME280;47168;48.104;20.730;2022-07-12T08:10:39;100252.25;;;19.90;53.58
61296;BME280;47168;48.104;20.730;2022-07-12T08:13:05;100248.16;;;20.63;53.26
61296;BME280;47168;48.104;20.730;2022-07-12T08:15:30;100244.81;;;20.69;45.65
61296;BME280;47168;48.104;20.730;2022-07-12T08:17:56;100246.94;;;20.58;51.55
61296;BME280;47168;48.104;20.730;2022-07-12T08:20:22;100241.88;;;20.38;46.45
61296;BME280;47168;48.104;20.730;2022-07-12T08:22:48;100248.28;;;20.53;48.34
61296;BME280;47168;48.104;20.730;2022-07-12T08:25:13;100238.69;;;20.43;46.78
61296;BME280;47168;48.104;20.730;2022-07-12T08:27:39;100244.91;;;20.43;55.25
61296;BME280;47168;48.104;20.730;2022-07-12T08:30:05;100240.47;;;20.85;56.96
61296;BME280;47168;48.104;20.730;2022-07-12T08:32:31;100249.31;;;21.43;56.46
61296;BME280;47168;48.104;20.730;2022-07-12T08:34:56;100234.44;;;21.16;45.63
61296;BME280;47168;48.104;20.730;2022-07-12T08:37:22;100236.28;;;21.07;49.06
61296;BME280;47168;48.104;20.730;2022-07-12T08:39:47;100240.63;;;21.08;52.21
61296;BME280;47168;48.104;20.730;2022-07-12T08:42:17;100244.50;;;21.22;48.96
61296;BME280;47168;48.104;20.730;2022-07-12T08:44:44;100234.44;;;20.99;50.19
61296;BME280;47168;48.104;20.730;2022-07-12T08:47:10;100240.81;;;20.90;51.68
61296;BME280;47168;48.104;20.730;2022-07-12T08:49:36;100227.56;;;20.72;49.00
61296;BME280;47168;48.104;20.730;2022-07-12T08:52:24;100232.41;;;20.68;49.50
61296;BME280;47168;48.104;20.730;2022-07-12T08:54:50;100226.66;;;20.55;48.56
61296;BME280;47168;48.104;20.730;2022-07-12T08:57:28;100230.66;;;20.43;46.72
61296;BME280;47168;48.104;20.730;2022-07-12T09:00:01;100235.97;;;20.34;52.63
61296;BME280;47168;48.104;20.730;2022-07-12T09:02:26;100242.13;;;21.43;54.02
61296;BME280;47168;48.104;20.730;2022-07-12T09:05:08;100241.66;;;21.96;48.83
61296;BME280;47168;48.104;20.730;2022-07-12T09:07:37;100226.25;;;22.29;50.83
61296;BME280;47168;48.104;20.730;2022-07-12T09:10:07;100228.53;;;23.48;45.71
61296;BME280;47168;48.104;20.730;2022-07-12T09:12:34;100226.16;;;23.83;44.73
61296;BME280;47168;48.104;20.730;2022-07-12T09:15:22;100223.69;;;23.43;36.95
61296;BME280;47168;48.104;20.730;2022-07-12T09:18:03;100225.06;;;23.01;41.84
61296;BME280;47168;48.104;20.730;2022-07-12T09:20:30;100226.72;;;23.10;43.51
61296;BME280;47168;48.104;20.730;2022-07-12T09:23:03;100232.50;;;22.76;41.29
61296;BME280;47168;48.104;20.730;2022-07-12T09:25:32;100234.22;;;22.46;40.52
61296;BME280;47168;48.104;20.730;2022-07-12T09:27:58;100231.53;;;22.06;46.23
61296;BME280;47168;48.104;20.730;2022-07-12T09:30:26;100237.09;;;22.44;46.55
61296;BME280;47168;48.104;20.730;2022-07-12T09:33:03;100237.41;;;22.96;41.90
61296;BME280;47168;48.104;20.730;2022-07-12T09:38:36;100240.63;;;22.91;43.05
61296;BME280;47168;48.104;20.730;2022-07-12T09:41:03;100231.50;;;22.77;43.43
61296;BME280;47168;48.104;20.730;2022-07-12T09:43:29;100234.91;;;22.71;45.56
61296;BME280;47168;48.104;20.730;2022-07-12T09:45:55;100222.00;;;22.04;39.25
61296;BME280;47168;48.104;20.730;2022-07-12T09:48:21;100236.91;;;21.58;43.47
61296;BME280;47168;48.104;20.730;2022-07-12T09:50:51;100239.94;;;21.39;45.93
61296;BME280;47168;48.104;20.730;2022-07-12T09:53:37;100232.25;;;21.27;48.41
61296;BME280;47168;48.104;20.730;2022-07-12T09:56:04;100219.44;;;21.46;43.73
61296;BME280;47168;48.104;20.730;2022-07-12T09:58:55;100224.84;;;21.54;42.27
61296;BME280;47168;48.104;20.730;2022-07-12T10:01:20;100218.22;;;21.73;42.63
61296;BME280;47168;48.104;20.730;2022-07-12T10:03:46;100209.41;;;21.96;42.97
61296;BME280;47168;48.104;20.730;2022-07-12T10:06:16;100217.69;;;21.86;41.66
61296;BME280;47168;48.104;20.730;2022-07-12T10:08:41;100227.00;;;21.67;40.99
61296;BME280;47168;48.104;20.730;2022-07-12T10:11:07;100213.59;;;21.51;44.06
61296;BME280;47168;48.104;20.730;2022-07-12T10:13:34;100215.91;;;21.70;41.15
61296;BME280;47168;48.104;20.730;2022-07-12T10:16:01;100212.38;;;21.61;43.68
61296;BME280;47168;48.104;20.730;2022-07-12T10:18:28;100203.16;;;21.64;43.93
61296;BME280;47168;48.104;20.730;2022-07-12T10:20:54;100205.84;;;21.64;44.44
61296;BME280;47168;48.104;20.730;2022-07-12T10:25:45;100198.75;;;22.88;44.94
61296;BME280;47168;48.104;20.730;2022-07-12T10:28:12;100195.63;;;23.23;40.37
61296;BME280;47168;48.104;20.730;2022-07-12T10:30:46;100190.41;;;23.21;43.46
61296;BME280;47168;48.104;20.730;2022-07-12T10:33:21;100190.97;;;23.17;41.41
61296;BME280;47168;48.104;20.730;2022-07-12T10:36:06;100183.06;;;22.77;38.53
61296;BME280;47168;48.104;20.730;2022-07-12T10:38:33;100184.13;;;22.45;38.20
61296;BME280;47168;48.104;20.730;2022-07-12T10:41:19;100178.38;;;23.17;39.08
61296;BME280;47168;48.104;20.730;2022-07-12T10:43:45;100178.38;;;24.50;43.11
61296;BME280;47168;48.104;20.730;2022-07-12T10:46:29;100170.03;;;24.23;36.04
61296;BME280;47168;48.104;20.730;2022-07-12T10:49:23;100172.44;;;24.18;36.74
61296;BME280;47168;48.104;20.730;2022-07-12T10:57:44;100173.34;;;22.91;39.01
61296;BME280;47168;48.104;20.730;2022-07-12T11:00:11;100176.13;;;23.65;47.60
61296;BME280;47168;48.104;20.730;2022-07-12T11:02:37;100167.66;;;23.98;36.04
61296;BME280;47168;48.104;20.730;2022-07-12T11:05:03;100171.50;;;23.89;39.58
61296;BME280;47168;48.104;20.730;2022-07-12T11:07:29;100167.03;;;23.96;38.72
61296;BME280;47168;48.104;20.730;2022-07-12T11:09:55;100176.22;;;22.89;37.80
61296;BME280;47168;48.104;20.730;2022-07-12T11:12:26;100193.50;;;23.48;48.80
61296;BME280;47168;48.104;20.730;2022-07-12T11:14:52;100177.06;;;24.02;35.20
61296;BME280;47168;48.104;20.730;2022-07-12T11:17:20;100170.59;;;24.18;40.92
61296;BME280;47168;48.104;20.730;2022-07-12T11:20:19;100160.91;;;24.24;33.70
61296;BME280;47168;48.104;20.730;2022-07-12T11:22:45;100170.66;;;23.59;38.22
61296;BME280;47168;48.104;20.730;2022-07-12T11:25:12;100167.97;;;23.29;39.56
61296;BME280;47168;48.104;20.730;2022-07-12T11:27:38;100156.91;;;23.09;35.31
61296;BME280;47168;48.104;20.730;2022-07-12T11:30:05;100165.22;;;22.99;37.19
61296;BME280;47168;48.104;20.730;2022-07-12T11:32:41;100165.81;;;23.24;38.80
61296;BME280;47168;48.104;20.730;2022-07-12T11:35:19;100158.97;;;22.99;39.12
61296;BME280;47168;48.104;20.730;2022-07-12T11:37:55;100163.56;;;22.75;37.98
61296;BME280;47168;48.104;20.730;2022-07-12T11:40:22;100172.19;;;22.70;43.49
61296;BME280;47168;48.104;20.730;2022-07-12T11:42:53;100172.44;;;22.37;39.10
61296;BME280;47168;48.104;20.730;2022-07-12T11:45:18;100163.97;;;22.49;39.70
61296;BME280;47168;48.104;20.730;2022-07-12T11:47:44;100163.03;;;23.18;40.36
61296;BME280;47168;48.104;20.730;2022-07-12T11:50:09;100157.97;;;23.00;41.79
61296;BME280;47168;48.104;20.730;2022-07-12T11:52:34;100176.53;;;22.71;51.91
61296;BME280;47168;48.104;20.730;2022-07-12T11:55:06;100197.25;;;21.77;58.03
61296;BME280;47168;48.104;20.730;2022-07-12T11:57:32;100205.78;;;20.75;53.23
61296;BME280;47168;48.104;20.730;2022-07-12T12:00:14;100206.03;;;20.39;57.72
61296;BME280;47168;48.104;20.730;2022-07-12T12:02:40;100207.34;;;19.84;58.96
61296;BME280;47168;48.104;20.730;2022-07-12T12:05:06;100215.56;;;19.30;66.58
61296;BME280;47168;48.104;20.730;2022-07-12T12:07:32;100210.47;;;19.19;68.04
61296;BME280;47168;48.104;20.730;2022-07-12T12:10:02;100230.03;;;19.46;72.74
61296;BME280;47168;48.104;20.730;2022-07-12T12:12:56;100200.44;;;19.73;63.87
61296;BME280;47168;48.104;20.730;2022-07-12T12:15:27;100200.88;;;19.95;64.75
61296;BME280;47168;48.104;20.730;2022-07-12T12:17:59;100207.78;;;20.89;69.29
61296;BME280;47168;48.104;20.730;2022-07-12T12:20:28;100204.00;;;22.04;67.04
61296;BME280;47168;48.104;20.730;2022-07-12T12:22:56;100195.28;;;22.02;57.73
61296;BME280;47168;48.104;20.730;2022-07-12T12:25:22;100191.25;;;21.98;53.97
61296;BME280;47168;48.104;20.730;2022-07-12T12:27:58;100182.97;;;21.76;55.16
61296;BME280;47168;48.104;20.730;2022-07-12T12:30:26;100177.53;;;21.93;52.75
61296;BME280;47168;48.104;20.730;2022-07-12T12:32:52;100182.78;;;22.49;51.75
61296;BME280;47168;48.104;20.730;2022-07-12T12:35:19;100184.31;;;22.43;57.18
61296;BME280;47168;48.104;20.730;2022-07-12T12:37:54;100174.94;;;22.39;51.99
61296;BME280;47168;48.104;20.730;2022-07-12T12:40:25;100179.97;;;22.42;53.29
61296;BME280;47168;48.104;20.730;2022-07-12T12:42:51;100180.25;;;22.47;53.46
61296;BME280;47168;48.104;20.730;2022-07-12T12:45:21;100179.66;;;22.60;53.63
61296;BME280;47168;48.104;20.730;2022-07-12T12:47:55;100179.56;;;22.91;54.39
61296;BME280;47168;48.104;20.730;2022-07-12T12:50:39;100194.63;;;23.24;52.50
61296;BME280;47168;48.104;20.730;2022-07-12T12:53:11;100193.41;;;23.03;50.76